Woodland, California
Current Conditions -  °F | °C
As of 5:53 PM on Friday 21 Nov 2014 (Local Time) from KSMF Reporting Station
Overcast Overcast  
Wind Chill: 54°   Ceiling: 13000
Heat Index: 54°   Visibility: 9mi
Dew Point: 50°   Wind: 5mph
Humidity: 86%   Direction: 150°SSE
Pressure: 30.1"   Gusts: NA
Location:  38.68°N, 121.77°W
Report Text: KSMF 220153Z 15004KT 9SM SCT080 OVC130 12/10 A3010 RMK AO2 RAB02E21 SLP193 P0000 T01220100
Loading
Personal Weather Stations






























Interactive Weather Map New forecast layout! Learn more

10-Day Weather Forecast

Advertisements
Track Severe Weather on mobile